sensor_id;sensor_type;location;lat;lon;timestamp;pressure;altitude;pressure_sealevel;temperature;humidity
29433;BME280;16405;53.964;13.448;2023-04-23T00:00:13;100297.06;;;9.02;73.05
29433;BME280;16405;53.964;13.448;2023-04-23T00:02:43;100286.66;;;9.01;73.50
29433;BME280;16405;53.964;13.448;2023-04-23T00:05:12;100290.41;;;8.95;73.43
29433;BME280;16405;53.964;13.448;2023-04-23T00:07:43;100291.34;;;8.94;73.34
29433;BME280;16405;53.964;13.448;2023-04-23T00:10:10;100281.91;;;8.90;73.49
29433;BME280;16405;53.964;13.448;2023-04-23T00:12:36;100275.38;;;8.80;74.08
29433;BME280;16405;53.964;13.448;2023-04-23T00:15:03;100272.81;;;8.78;74.25
29433;BME280;16405;53.964;13.448;2023-04-23T00:17:30;100266.16;;;8.71;74.57
29433;BME280;16405;53.964;13.448;2023-04-23T00:19:58;100260.31;;;8.65;74.67
29433;BME280;16405;53.964;13.448;2023-04-23T00:22:23;100254.34;;;8.61;74.73
29433;BME280;16405;53.964;13.448;2023-04-23T00:24:49;100252.00;;;8.55;75.26
29433;BME280;16405;53.964;13.448;2023-04-23T00:27:15;100243.50;;;8.50;75.49
29433;BME280;16405;53.964;13.448;2023-04-23T00:29:42;100239.25;;;8.47;75.66
29433;BME280;16405;53.964;13.448;2023-04-23T00:32:10;100238.41;;;8.47;74.97
29433;BME280;16405;53.964;13.448;2023-04-23T00:34:39;100226.25;;;8.44;75.11
29433;BME280;16405;53.964;13.448;2023-04-23T00:37:05;100230.06;;;8.57;75.05
29433;BME280;16405;53.964;13.448;2023-04-23T00:39:32;100228.13;;;8.61;74.78
29433;BME280;16405;53.964;13.448;2023-04-23T00:41:58;100220.25;;;8.61;74.29
29433;BME280;16405;53.964;13.448;2023-04-23T00:44:31;100217.84;;;8.56;75.12
29433;BME280;16405;53.964;13.448;2023-04-23T00:46:58;100218.56;;;8.60;74.53
29433;BME280;16405;53.964;13.448;2023-04-23T00:49:25;100212.09;;;8.67;74.29
29433;BME280;16405;53.964;13.448;2023-04-23T00:51:51;100211.81;;;8.73;74.31
29433;BME280;16405;53.964;13.448;2023-04-23T00:54:26;100207.34;;;8.75;73.75
29433;BME280;16405;53.964;13.448;2023-04-23T00:56:53;100200.06;;;8.80;73.64
29433;BME280;16405;53.964;13.448;2023-04-23T00:59:20;100200.72;;;8.86;73.45
29433;BME280;16405;53.964;13.448;2023-04-23T01:01:51;100193.47;;;8.91;73.36
29433;BME280;16405;53.964;13.448;2023-04-23T01:04:18;100196.66;;;8.97;72.74
29433;BME280;16405;53.964;13.448;2023-04-23T01:06:44;100197.97;;;9.06;72.88
29433;BME280;16405;53.964;13.448;2023-04-23T01:09:18;100199.53;;;9.10;73.05
29433;BME280;16405;53.964;13.448;2023-04-23T01:11:44;100206.19;;;9.17;72.63
29433;BME280;16405;53.964;13.448;2023-04-23T01:14:11;100196.53;;;9.18;72.40
29433;BME280;16405;53.964;13.448;2023-04-23T01:16:37;100195.38;;;9.23;72.20
29433;BME280;16405;53.964;13.448;2023-04-23T01:19:08;100197.16;;;9.23;72.35
29433;BME280;16405;53.964;13.448;2023-04-23T01:21:38;100186.56;;;9.24;72.23
29433;BME280;16405;53.964;13.448;2023-04-23T01:24:07;100186.66;;;9.23;72.47
29433;BME280;16405;53.964;13.448;2023-04-23T01:26:34;100185.94;;;9.19;72.57
29433;BME280;16405;53.964;13.448;2023-04-23T01:29:02;100185.09;;;9.19;71.94
29433;BME280;16405;53.964;13.448;2023-04-23T01:31:28;100180.06;;;9.14;72.61
29433;BME280;16405;53.964;13.448;2023-04-23T01:33:55;100184.91;;;9.04;73.01
29433;BME280;16405;53.964;13.448;2023-04-23T01:36:23;100185.31;;;8.97;73.32
29433;BME280;16405;53.964;13.448;2023-04-23T01:38:55;100184.66;;;8.92;73.76
29433;BME280;16405;53.964;13.448;2023-04-23T01:41:21;100178.72;;;8.88;74.30
29433;BME280;16405;53.964;13.448;2023-04-23T01:43:47;100182.81;;;8.94;74.08
29433;BME280;16405;53.964;13.448;2023-04-23T01:46:13;100184.47;;;8.96;73.59
29433;BME280;16405;53.964;13.448;2023-04-23T01:48:39;100180.06;;;8.97;73.38
29433;BME280;16405;53.964;13.448;2023-04-23T01:51:05;100185.06;;;9.01;73.34
29433;BME280;16405;53.964;13.448;2023-04-23T01:53:38;100179.88;;;9.00;73.37
29433;BME280;16405;53.964;13.448;2023-04-23T01:56:04;100177.44;;;8.97;73.80
29433;BME280;16405;53.964;13.448;2023-04-23T01:58:31;100171.75;;;8.87;73.61
29433;BME280;16405;53.964;13.448;2023-04-23T02:01:02;100174.66;;;8.81;73.87
29433;BME280;16405;53.964;13.448;2023-04-23T02:03:28;100165.69;;;8.68;74.93
29433;BME280;16405;53.964;13.448;2023-04-23T02:05:57;100169.69;;;8.57;75.47
29433;BME280;16405;53.964;13.448;2023-04-23T02:08:24;100164.63;;;8.53;75.54
29433;BME280;16405;53.964;13.448;2023-04-23T02:10:50;100159.69;;;8.47;75.27
29433;BME280;16405;53.964;13.448;2023-04-23T02:13:19;100163.44;;;8.41;75.69
29433;BME280;16405;53.964;13.448;2023-04-23T02:15:45;100166.09;;;8.39;75.68
29433;BME280;16405;53.964;13.448;2023-04-23T02:18:10;100174.13;;;8.36;75.13
29433;BME280;16405;53.964;13.448;2023-04-23T02:20:37;100164.91;;;8.28;76.01
29433;BME280;16405;53.964;13.448;2023-04-23T02:23:12;100160.78;;;8.22;75.79
29433;BME280;16405;53.964;13.448;2023-04-23T02:25:38;100162.13;;;8.12;76.40
29433;BME280;16405;53.964;13.448;2023-04-23T02:28:05;100165.03;;;8.06;77.06
29433;BME280;16405;53.964;13.448;2023-04-23T02:30:35;100166.50;;;7.92;78.15
29433;BME280;16405;53.964;13.448;2023-04-23T02:33:10;100163.16;;;7.89;78.53
29433;BME280;16405;53.964;13.448;2023-04-23T02:35:36;100160.41;;;7.92;79.00
29433;BME280;16405;53.964;13.448;2023-04-23T02:38:05;100165.38;;;7.98;78.87
29433;BME280;16405;53.964;13.448;2023-04-23T02:40:33;100160.44;;;8.11;78.21
29433;BME280;16405;53.964;13.448;2023-04-23T02:42:59;100164.34;;;8.21;78.11
29433;BME280;16405;53.964;13.448;2023-04-23T02:45:24;100167.38;;;8.31;78.79
29433;BME280;16405;53.964;13.448;2023-04-23T02:47:50;100163.38;;;8.43;78.55
29433;BME280;16405;53.964;13.448;2023-04-23T02:50:20;100158.25;;;8.58;77.97
29433;BME280;16405;53.964;13.448;2023-04-23T02:52:48;100161.00;;;8.74;77.46
29433;BME280;16405;53.964;13.448;2023-04-23T02:55:14;100163.97;;;8.86;77.46
29433;BME280;16405;53.964;13.448;2023-04-23T02:57:41;100155.94;;;8.89;77.67
29433;BME280;16405;53.964;13.448;2023-04-23T03:00:08;100156.47;;;8.95;77.90
29433;BME280;16405;53.964;13.448;2023-04-23T03:02:39;100157.19;;;8.99;77.42
29433;BME280;16405;53.964;13.448;2023-04-23T03:05:05;100153.34;;;9.06;77.31
29433;BME280;16405;53.964;13.448;2023-04-23T03:07:32;100162.59;;;9.13;77.33
29433;BME280;16405;53.964;13.448;2023-04-23T03:09:57;100164.63;;;9.26;76.92
29433;BME280;16405;53.964;13.448;2023-04-23T03:12:23;100161.53;;;9.35;76.61
29433;BME280;16405;53.964;13.448;2023-04-23T03:14:57;100158.13;;;9.33;76.93
29433;BME280;16405;53.964;13.448;2023-04-23T03:17:22;100161.28;;;9.39;76.51
29433;BME280;16405;53.964;13.448;2023-04-23T03:19:48;100163.53;;;9.47;76.00
29433;BME280;16405;53.964;13.448;2023-04-23T03:22:14;100161.31;;;9.57;75.31
29433;BME280;16405;53.964;13.448;2023-04-23T03:24:40;100161.84;;;9.63;75.42
29433;BME280;16405;53.964;13.448;2023-04-23T03:27:10;100170.94;;;9.74;75.41
29433;BME280;16405;53.964;13.448;2023-04-23T03:29:36;100171.63;;;9.77;75.04
29433;BME280;16405;53.964;13.448;2023-04-23T03:32:02;100169.53;;;9.84;74.88
29433;BME280;16405;53.964;13.448;2023-04-23T03:34:28;100165.88;;;9.86;74.70
29433;BME280;16405;53.964;13.448;2023-04-23T03:36:54;100169.97;;;9.92;74.94
29433;BME280;16405;53.964;13.448;2023-04-23T03:39:20;100167.16;;;9.95;75.04
29433;BME280;16405;53.964;13.448;2023-04-23T03:41:54;100171.44;;;9.98;74.98
29433;BME280;16405;53.964;13.448;2023-04-23T03:44:20;100164.91;;;10.05;75.52
29433;BME280;16405;53.964;13.448;2023-04-23T03:46:46;100168.91;;;10.12;75.08
29433;BME280;16405;53.964;13.448;2023-04-23T03:49:12;100160.09;;;10.13;75.27
29433;BME280;16405;53.964;13.448;2023-04-23T03:51:45;100150.09;;;10.20;74.99
29433;BME280;16405;53.964;13.448;2023-04-23T03:54:11;100165.44;;;10.27;74.93
29433;BME280;16405;53.964;13.448;2023-04-23T03:56:37;100154.63;;;10.34;74.79
29433;BME280;16405;53.964;13.448;2023-04-23T03:59:02;100164.81;;;10.40;74.48
29433;BME280;16405;53.964;13.448;2023-04-23T04:01:28;100169.13;;;10.41;74.80
29433;BME280;16405;53.964;13.448;2023-04-23T04:04:01;100171.44;;;10.47;74.80
29433;BME280;16405;53.964;13.448;2023-04-23T04:06:27;100166.16;;;10.47;75.67
29433;BME280;16405;53.964;13.448;2023-04-23T04:08:53;100163.47;;;10.49;75.30
29433;BME280;16405;53.964;13.448;2023-04-23T04:11:18;100162.28;;;10.54;75.21
29433;BME280;16405;53.964;13.448;2023-04-23T04:13:45;100156.66;;;10.60;75.64
29433;BME280;16405;53.964;13.448;2023-04-23T04:16:18;100167.28;;;10.59;76.24
29433;BME280;16405;53.964;13.448;2023-04-23T04:18:44;100153.19;;;10.60;75.73
29433;BME280;16405;53.964;13.448;2023-04-23T04:21:10;100147.84;;;10.61;75.99
29433;BME280;16405;53.964;13.448;2023-04-23T04:23:36;100170.50;;;10.64;75.83
29433;BME280;16405;53.964;13.448;2023-04-23T04:26:02;100161.78;;;10.63;75.92
29433;BME280;16405;53.964;13.448;2023-04-23T04:28:37;100168.72;;;10.64;76.02
29433;BME280;16405;53.964;13.448;2023-04-23T04:31:04;100179.25;;;10.64;76.06
29433;BME280;16405;53.964;13.448;2023-04-23T04:33:34;100173.13;;;10.64;76.39
29433;BME280;16405;53.964;13.448;2023-04-23T04:36:01;100173.75;;;10.69;76.66
29433;BME280;16405;53.964;13.448;2023-04-23T04:38:27;100165.75;;;10.71;76.89
29433;BME280;16405;53.964;13.448;2023-04-23T04:40:54;100173.56;;;10.72;77.89
29433;BME280;16405;53.964;13.448;2023-04-23T04:43:26;100160.41;;;10.56;79.92
29433;BME280;16405;53.964;13.448;2023-04-23T04:45:51;100163.91;;;10.57;81.41
29433;BME280;16405;53.964;13.448;2023-04-23T04:48:18;100155.16;;;10.56;81.72
29433;BME280;16405;53.964;13.448;2023-04-23T04:50:44;100166.34;;;10.60;81.80
29433;BME280;16405;53.964;13.448;2023-04-23T04:53:11;100164.81;;;10.56;82.17
29433;BME280;16405;53.964;13.448;2023-04-23T04:55:37;100162.88;;;10.59;82.56
29433;BME280;16405;53.964;13.448;2023-04-23T04:58:06;100160.81;;;10.64;82.82
29433;BME280;16405;53.964;13.448;2023-04-23T05:00:31;100159.38;;;10.75;82.03
29433;BME280;16405;53.964;13.448;2023-04-23T05:02:58;100155.38;;;10.83;81.65
29433;BME280;16405;53.964;13.448;2023-04-23T05:05:25;100154.75;;;10.94;81.26
29433;BME280;16405;53.964;13.448;2023-04-23T05:07:51;100163.00;;;11.04;81.04
29433;BME280;16405;53.964;13.448;2023-04-23T05:10:19;100160.66;;;11.14;80.39
29433;BME280;16405;53.964;13.448;2023-04-23T05:12:45;100160.25;;;11.21;80.90
29433;BME280;16405;53.964;13.448;2023-04-23T05:15:13;100164.19;;;11.28;81.90
29433;BME280;16405;53.964;13.448;2023-04-23T05:17:39;100160.19;;;11.37;82.03
29433;BME280;16405;53.964;13.448;2023-04-23T05:20:07;100163.50;;;11.55;81.17
29433;BME280;16405;53.964;13.448;2023-04-23T05:22:40;100158.81;;;11.75;79.39
29433;BME280;16405;53.964;13.448;2023-04-23T05:25:08;100166.59;;;11.92;78.56
29433;BME280;16405;53.964;13.448;2023-04-23T05:27:34;100168.69;;;12.01;78.59
29433;BME280;16405;53.964;13.448;2023-04-23T05:30:03;100170.38;;;12.17;77.99
29433;BME280;16405;53.964;13.448;2023-04-23T05:32:29;100170.53;;;12.28;77.53
29433;BME280;16405;53.964;13.448;2023-04-23T05:34:56;100168.56;;;12.31;78.46
29433;BME280;16405;53.964;13.448;2023-04-23T05:37:22;100163.38;;;12.44;77.18
29433;BME280;16405;53.964;13.448;2023-04-23T05:39:48;100166.91;;;12.58;76.93
29433;BME280;16405;53.964;13.448;2023-04-23T05:42:13;100166.16;;;12.70;77.04
29433;BME280;16405;53.964;13.448;2023-04-23T05:44:39;100164.56;;;12.80;77.15
29433;BME280;16405;53.964;13.448;2023-04-23T05:47:09;100166.34;;;12.94;76.71
29433;BME280;16405;53.964;13.448;2023-04-23T05:49:35;100157.91;;;13.02;76.69
29433;BME280;16405;53.964;13.448;2023-04-23T05:52:01;100160.00;;;12.97;76.58
29433;BME280;16405;53.964;13.448;2023-04-23T05:54:28;100148.16;;;13.02;76.78
29433;BME280;16405;53.964;13.448;2023-04-23T05:56:54;100160.03;;;13.09;76.98
29433;BME280;16405;53.964;13.448;2023-04-23T05:59:22;100166.53;;;13.18;76.18
29433;BME280;16405;53.964;13.448;2023-04-23T06:01:48;100166.22;;;13.23;75.86
29433;BME280;16405;53.964;13.448;2023-04-23T06:04:17;100166.81;;;13.13;76.81
29433;BME280;16405;53.964;13.448;2023-04-23T06:06:43;100168.94;;;13.21;77.54
29433;BME280;16405;53.964;13.448;2023-04-23T06:09:10;100162.47;;;13.12;78.61
29433;BME280;16405;53.964;13.448;2023-04-23T06:11:36;100174.59;;;13.29;78.55
29433;BME280;16405;53.964;13.448;2023-04-23T06:14:04;100173.38;;;13.35;78.67
29433;BME280;16405;53.964;13.448;2023-04-23T06:16:32;100175.47;;;13.43;78.53
29433;BME280;16405;53.964;13.448;2023-04-23T06:18:58;100172.22;;;13.52;78.18
29433;BME280;16405;53.964;13.448;2023-04-23T06:21:24;100178.47;;;13.64;78.03
29433;BME280;16405;53.964;13.448;2023-04-23T06:23:52;100178.50;;;13.89;76.82
29433;BME280;16405;53.964;13.448;2023-04-23T06:26:17;100184.28;;;14.20;75.45
29433;BME280;16405;53.964;13.448;2023-04-23T06:28:52;100185.66;;;14.39;74.71
29433;BME280;16405;53.964;13.448;2023-04-23T06:31:18;100193.88;;;14.47;74.35
29433;BME280;16405;53.964;13.448;2023-04-23T06:33:44;100179.25;;;14.54;74.10
29433;BME280;16405;53.964;13.448;2023-04-23T06:36:13;100184.56;;;14.54;73.44
29433;BME280;16405;53.964;13.448;2023-04-23T06:38:39;100181.59;;;14.46;73.47
29433;BME280;16405;53.964;13.448;2023-04-23T06:41:06;100191.44;;;14.44;73.15
29433;BME280;16405;53.964;13.448;2023-04-23T06:43:31;100191.34;;;14.45;73.55
29433;BME280;16405;53.964;13.448;2023-04-23T06:45:57;100193.44;;;14.53;73.89
29433;BME280;16405;53.964;13.448;2023-04-23T06:48:23;100185.16;;;14.70;73.48
29433;BME280;16405;53.964;13.448;2023-04-23T06:50:51;100186.38;;;14.90;73.66
29433;BME280;16405;53.964;13.448;2023-04-23T06:53:19;100187.53;;;15.10;72.91
29433;BME280;16405;53.964;13.448;2023-04-23T06:55:45;100198.81;;;15.25;72.98
29433;BME280;16405;53.964;13.448;2023-04-23T06:58:11;100206.34;;;15.31;72.37
29433;BME280;16405;53.964;13.448;2023-04-23T07:00:37;100194.28;;;15.38;72.75
29433;BME280;16405;53.964;13.448;2023-04-23T07:03:02;100199.34;;;15.42;72.92
29433;BME280;16405;53.964;13.448;2023-04-23T07:05:28;100199.88;;;15.47;72.39
29433;BME280;16405;53.964;13.448;2023-04-23T07:07:54;100195.78;;;15.54;72.62
29433;BME280;16405;53.964;13.448;2023-04-23T07:10:27;100187.72;;;15.55;72.39
29433;BME280;16405;53.964;13.448;2023-04-23T07:12:53;100190.97;;;15.59;72.61
29433;BME280;16405;53.964;13.448;2023-04-23T07:15:19;100196.25;;;15.59;72.29
29433;BME280;16405;53.964;13.448;2023-04-23T07:17:47;100196.75;;;15.53;72.86
29433;BME280;16405;53.964;13.448;2023-04-23T07:20:13;100195.50;;;15.46;73.48
29433;BME280;16405;53.964;13.448;2023-04-23T07:22:39;100197.03;;;15.37;73.90
29433;BME280;16405;53.964;13.448;2023-04-23T07:25:05;100195.94;;;15.28;74.79
29433;BME280;16405;53.964;13.448;2023-04-23T07:27:33;100196.38;;;15.22;75.49
29433;BME280;16405;53.964;13.448;2023-04-23T07:29:59;100200.47;;;15.15;75.88
29433;BME280;16405;53.964;13.448;2023-04-23T07:32:26;100196.44;;;15.09;76.07
29433;BME280;16405;53.964;13.448;2023-04-23T07:34:59;100209.09;;;15.06;76.41
29433;BME280;16405;53.964;13.448;2023-04-23T07:37:25;100202.34;;;15.02;76.65
29433;BME280;16405;53.964;13.448;2023-04-23T07:39:51;100207.09;;;14.96;77.36
29433;BME280;16405;53.964;13.448;2023-04-23T07:42:20;100201.75;;;14.85;77.72
29433;BME280;16405;53.964;13.448;2023-04-23T07:44:49;100195.41;;;14.75;78.76
29433;BME280;16405;53.964;13.448;2023-04-23T07:47:15;100198.41;;;14.70;78.73
29433;BME280;16405;53.964;13.448;2023-04-23T07:49:41;100200.66;;;14.64;79.36
29433;BME280;16405;53.964;13.448;2023-04-23T07:52:07;100201.09;;;14.57;80.13
29433;BME280;16405;53.964;13.448;2023-04-23T07:54:38;100207.53;;;14.53;80.96
29433;BME280;16405;53.964;13.448;2023-04-23T07:57:04;100212.81;;;14.53;81.04
29433;BME280;16405;53.964;13.448;2023-04-23T07:59:30;100202.47;;;14.50;81.74
29433;BME280;16405;53.964;13.448;2023-04-23T08:01:55;100208.59;;;14.51;82.08
29433;BME280;16405;53.964;13.448;2023-04-23T08:04:21;100194.50;;;14.50;82.21
29433;BME280;16405;53.964;13.448;2023-04-23T08:06:47;100197.91;;;14.52;82.69
29433;BME280;16405;53.964;13.448;2023-04-23T08:09:13;100196.84;;;14.55;82.57
29433;BME280;16405;53.964;13.448;2023-04-23T08:11:40;100197.50;;;14.59;82.37
29433;BME280;16405;53.964;13.448;2023-04-23T08:14:06;100185.81;;;14.61;82.36
29433;BME280;16405;53.964;13.448;2023-04-23T08:16:32;100183.91;;;14.63;82.97
29433;BME280;16405;53.964;13.448;2023-04-23T08:18:58;100174.56;;;14.70;83.45
29433;BME280;16405;53.964;13.448;2023-04-23T08:21:24;100170.97;;;14.71;84.58
29433;BME280;16405;53.964;13.448;2023-04-23T08:23:51;100172.53;;;14.74;84.92
29433;BME280;16405;53.964;13.448;2023-04-23T08:26:17;100186.19;;;14.81;84.68
29433;BME280;16405;53.964;13.448;2023-04-23T08:28:45;100190.75;;;14.79;84.37
29433;BME280;16405;53.964;13.448;2023-04-23T08:31:13;100194.97;;;14.81;83.96
29433;BME280;16405;53.964;13.448;2023-04-23T08:33:39;100188.00;;;14.80;84.31
29433;BME280;16405;53.964;13.448;2023-04-23T08:36:05;100202.09;;;14.81;84.10
29433;BME280;16405;53.964;13.448;2023-04-23T08:38:31;100204.97;;;14.77;84.48
29433;BME280;16405;53.964;13.448;2023-04-23T08:40:59;100210.38;;;14.76;84.93
29433;BME280;16405;53.964;13.448;2023-04-23T08:43:41;100206.34;;;14.70;85.39
29433;BME280;16405;53.964;13.448;2023-04-23T08:46:11;100206.59;;;14.67;85.44
29433;BME280;16405;53.964;13.448;2023-04-23T08:48:39;100212.09;;;14.64;85.93
29433;BME280;16405;53.964;13.448;2023-04-23T08:51:18;100207.66;;;14.65;86.28
29433;BME280;16405;53.964;13.448;2023-04-23T08:53:50;100209.56;;;14.63;86.32
29433;BME280;16405;53.964;13.448;2023-04-23T08:56:20;100216.03;;;14.59;86.94
29433;BME280;16405;53.964;13.448;2023-04-23T08:58:47;100212.81;;;14.53;86.91
29433;BME280;16405;53.964;13.448;2023-04-23T09:01:15;100220.59;;;14.44;87.39
29433;BME280;16405;53.964;13.448;2023-04-23T09:03:41;100225.91;;;14.31;88.13
29433;BME280;16405;53.964;13.448;2023-04-23T09:06:09;100230.38;;;14.18;88.75
29433;BME280;16405;53.964;13.448;2023-04-23T09:08:35;100223.34;;;14.04;90.09
29433;BME280;16405;53.964;13.448;2023-04-23T09:11:01;100226.13;;;14.02;90.53
29433;BME280;16405;53.964;13.448;2023-04-23T09:13:30;100223.91;;;13.96;91.41
29433;BME280;16405;53.964;13.448;2023-04-23T09:15:59;100224.84;;;13.95;91.53
29433;BME280;16405;53.964;13.448;2023-04-23T09:18:25;100227.50;;;13.95;92.53
29433;BME280;16405;53.964;13.448;2023-04-23T09:20:55;100225.41;;;14.00;92.69
29433;BME280;16405;53.964;13.448;2023-04-23T09:23:25;100233.53;;;13.97;93.05
29433;BME280;16405;53.964;13.448;2023-04-23T09:25:51;100238.19;;;13.93;93.61
29433;BME280;16405;53.964;13.448;2023-04-23T09:28:53;100243.91;;;13.87;94.74
29433;BME280;16405;53.964;13.448;2023-04-23T09:31:25;100243.47;;;13.81;95.64
29433;BME280;16405;53.964;13.448;2023-04-23T09:33:53;100258.50;;;13.67;96.08
29433;BME280;16405;53.964;13.448;2023-04-23T09:36:26;100266.78;;;12.65;95.71
29433;BME280;16405;53.964;13.448;2023-04-23T09:38:55;100263.88;;;12.13;96.50
29433;BME280;16405;53.964;13.448;2023-04-23T09:41:26;100272.38;;;11.87;98.81
29433;BME280;16405;53.964;13.448;2023-04-23T09:44:01;100266.66;;;11.65;100.00
29433;BME280;16405;53.964;13.448;2023-04-23T09:46:42;100282.00;;;11.58;100.00
29433;BME280;16405;53.964;13.448;2023-04-23T09:49:16;100288.38;;;11.54;100.00
29433;BME280;16405;53.964;13.448;2023-04-23T09:51:48;100293.72;;;11.53;100.00
29433;BME280;16405;53.964;13.448;2023-04-23T09:54:24;100297.47;;;11.64;100.00
29433;BME280;16405;53.964;13.448;2023-04-23T09:56:56;100284.91;;;11.54;100.00
29433;BME280;16405;53.964;13.448;2023-04-23T09:59:30;100293.16;;;11.47;100.00
29433;BME280;16405;53.964;13.448;2023-04-23T10:02:04;100290.44;;;11.49;100.00
29433;BME280;16405;53.964;13.448;2023-04-23T10:04:32;100292.13;;;11.50;100.00
29433;BME280;16405;53.964;13.448;2023-04-23T10:07:04;100300.53;;;11.57;100.00
29433;BME280;16405;53.964;13.448;2023-04-23T10:09:36;100298.94;;;11.54;100.00
29433;BME280;16405;53.964;13.448;2023-04-23T10:12:02;100308.19;;;11.61;100.00
29433;BME280;16405;53.964;13.448;2023-04-23T10:14:29;100304.88;;;11.58;100.00
29433;BME280;16405;53.964;13.448;2023-04-23T10:17:03;100312.59;;;11.61;100.00
29433;BME280;16405;53.964;13.448;2023-04-23T10:19:37;100309.69;;;11.65;100.00
29433;BME280;16405;53.964;13.448;2023-04-23T10:22:10;100318.22;;;11.70;100.00
29433;BME280;16405;53.964;13.448;2023-04-23T10:24:42;100315.19;;;11.77;100.00
29433;BME280;16405;53.964;13.448;2023-04-23T10:27:14;100313.28;;;11.64;100.00
29433;BME280;16405;53.964;13.448;2023-04-23T10:29:44;100318.03;;;11.74;100.00
29433;BME280;16405;53.964;13.448;2023-04-23T10:32:17;100310.88;;;11.76;100.00
29433;BME280;16405;53.964;13.448;2023-04-23T10:34:50;100316.88;;;11.94;100.00
29433;BME280;16405;53.964;13.448;2023-04-23T10:37:17;100314.22;;;12.09;100.00
29433;BME280;16405;53.964;13.448;2023-04-23T10:39:49;100323.38;;;12.32;100.00
29433;BME280;16405;53.964;13.448;2023-04-23T10:42:24;100322.91;;;12.26;100.00
29433;BME280;16405;53.964;13.448;2023-04-23T10:44:55;100316.84;;;12.09;99.03
29433;BME280;16405;53.964;13.448;2023-04-23T10:47:26;100318.16;;;12.17;97.76
29433;BME280;16405;53.964;13.448;2023-04-23T10:49:55;100315.44;;;12.32;98.43
29433;BME280;16405;53.964;13.448;2023-04-23T10:52:21;100322.91;;;12.26;97.01
29433;BME280;16405;53.964;13.448;2023-04-23T10:54:59;100320.09;;;12.29;96.94
29433;BME280;16405;53.964;13.448;2023-04-23T10:57:26;100324.50;;;12.28;97.93
29433;BME280;16405;53.964;13.448;2023-04-23T10:59:55;100322.63;;;12.16;97.90
29433;BME280;16405;53.964;13.448;2023-04-23T11:02:42;100332.88;;;12.21;98.92
29433;BME280;16405;53.964;13.448;2023-04-23T11:05:17;100324.22;;;12.19;98.19
29433;BME280;16405;53.964;13.448;2023-04-23T11:08:06;100324.00;;;12.22;99.08
29433;BME280;16405;53.964;13.448;2023-04-23T11:10:33;100323.84;;;12.25;98.52
29433;BME280;16405;53.964;13.448;2023-04-23T11:13:36;100334.28;;;12.26;96.24
29433;BME280;16405;53.964;13.448;2023-04-23T11:16:22;100326.50;;;12.39;95.59
29433;BME280;16405;53.964;13.448;2023-04-23T11:18:58;100330.19;;;12.51;95.39
29433;BME280;16405;53.964;13.448;2023-04-23T11:24:40;100327.91;;;12.30;92.54
29433;BME280;16405;53.964;13.448;2023-04-23T11:27:17;100331.00;;;12.37;93.03
29433;BME280;16405;53.964;13.448;2023-04-23T11:29:45;100331.31;;;12.47;92.41
29433;BME280;16405;53.964;13.448;2023-04-23T11:32:16;100335.56;;;12.64;92.13
29433;BME280;16405;53.964;13.448;2023-04-23T11:34:46;100343.41;;;12.80;92.25
29433;BME280;16405;53.964;13.448;2023-04-23T11:37:18;100340.47;;;12.84;92.27
29433;BME280;16405;53.964;13.448;2023-04-23T11:39:48;100343.00;;;13.00;92.36
29433;BME280;16405;53.964;13.448;2023-04-23T11:42:27;100353.59;;;13.00;92.51
29433;BME280;16405;53.964;13.448;2023-04-23T11:44:54;100341.13;;;12.73;90.17
29433;BME280;16405;53.964;13.448;2023-04-23T11:47:20;100339.53;;;12.71;90.49
29433;BME280;16405;53.964;13.448;2023-04-23T11:49:59;100334.13;;;12.44;87.21
29433;BME280;16405;53.964;13.448;2023-04-23T11:52:30;100335.81;;;12.16;86.55
29433;BME280;16405;53.964;13.448;2023-04-23T11:55:07;100327.94;;;12.00;87.41
29433;BME280;16405;53.964;13.448;2023-04-23T11:57:44;100329.44;;;12.04;88.45
29433;BME280;16405;53.964;13.448;2023-04-23T12:00:25;100338.53;;;12.15;89.24
29433;BME280;16405;53.964;13.448;2023-04-23T12:03:02;100338.34;;;12.18;90.06
29433;BME280;16405;53.964;13.448;2023-04-23T12:05:39;100348.75;;;12.49;90.79
29433;BME280;16405;53.964;13.448;2023-04-23T12:08:16;100345.28;;;12.63;90.33
29433;BME280;16405;53.964;13.448;2023-04-23T12:10:58;100351.09;;;13.11;89.91
29433;BME280;16405;53.964;13.448;2023-04-23T12:13:31;100355.59;;;13.52;89.84
29433;BME280;16405;53.964;13.448;2023-04-23T12:16:05;100353.56;;;13.83;87.20
29433;BME280;16405;53.964;13.448;2023-04-23T12:18:39;100352.97;;;14.05;84.89
29433;BME280;16405;53.964;13.448;2023-04-23T12:21:13;100354.03;;;14.03;83.13
29433;BME280;16405;53.964;13.448;2023-04-23T12:23:42;100350.56;;;14.02;82.04
29433;BME280;16405;53.964;13.448;2023-04-23T12:26:15;100349.50;;;14.05;81.86
29433;BME280;16405;53.964;13.448;2023-04-23T12:29:00;100365.94;;;14.23;82.82
29433;BME280;16405;53.964;13.448;2023-04-23T12:31:29;100361.06;;;14.42;82.59
29433;BME280;16405;53.964;13.448;2023-04-23T12:34:07;100358.47;;;14.68;81.11
29433;BME280;16405;53.964;13.448;2023-04-23T12:36:43;100363.66;;;14.69;79.94
29433;BME280;16405;53.964;13.448;2023-04-23T12:39:31;100368.00;;;14.57;79.10
29433;BME280;16405;53.964;13.448;2023-04-23T12:42:05;100368.00;;;14.70;79.65
29433;BME280;16405;53.964;13.448;2023-04-23T12:44:41;100371.72;;;14.81;80.04
29433;BME280;16405;53.964;13.448;2023-04-23T12:47:16;100382.06;;;14.96;79.66
29433;BME280;16405;53.964;13.448;2023-04-23T12:49:45;100366.88;;;15.11;78.92
29433;BME280;16405;53.964;13.448;2023-04-23T12:52:11;100369.47;;;15.37;77.35
29433;BME280;16405;53.964;13.448;2023-04-23T12:54:40;100376.72;;;15.59;77.56